createdAt,value
2023-05-09T00:00:11.346Z,34.09
2023-05-09T00:05:10.391Z,34.10
2023-05-09T00:07:38.190Z,34.16
2023-05-09T00:10:06.183Z,34.05
2023-05-09T00:12:34.083Z,34.43
2023-05-09T00:15:01.742Z,34.40
2023-05-09T00:17:33.559Z,34.38
2023-05-09T00:20:01.814Z,34.16
2023-05-09T00:22:29.874Z,34.75
2023-05-09T00:24:57.404Z,35.05
2023-05-09T00:27:24.957Z,34.33
2023-05-09T00:29:52.487Z,34.43
2023-05-09T00:32:20.106Z,34.61
2023-05-09T00:34:47.650Z,34.57
2023-05-09T00:37:15.193Z,34.62
2023-05-09T00:39:42.756Z,34.71
2023-05-09T00:42:10.304Z,34.41
2023-05-09T00:44:37.928Z,34.60
2023-05-09T00:47:05.969Z,34.59
2023-05-09T00:49:34.128Z,34.52
2023-05-09T00:52:02.625Z,34.91
2023-05-09T00:54:30.287Z,34.81
2023-05-09T00:56:57.827Z,34.51
2023-05-09T00:59:25.768Z,34.58
2023-05-09T01:01:53.627Z,35.11
2023-05-09T01:04:21.265Z,34.51
2023-05-09T01:06:52.582Z,34.86
2023-05-09T01:09:49.605Z,34.66
2023-05-09T01:12:24.410Z,34.76
2023-05-09T01:15:04.772Z,34.47
2023-05-09T01:17:52.123Z,34.41
2023-05-09T01:20:38.049Z,34.68
2023-05-09T01:23:30.595Z,34.67
2023-05-09T01:26:05.322Z,34.21
2023-05-09T01:29:10.615Z,34.39
2023-05-09T01:31:43.905Z,34.58
2023-05-09T01:34:13.578Z,34.41
2023-05-09T01:36:43.681Z,34.53
2023-05-09T01:39:13.921Z,33.79
2023-05-09T01:41:41.678Z,33.78
2023-05-09T01:44:12.805Z,33.54
2023-05-09T01:46:40.833Z,33.63
2023-05-09T01:49:09.807Z,32.94
2023-05-09T01:51:40.732Z,32.67
2023-05-09T01:54:11.444Z,33.55
2023-05-09T01:56:41.373Z,32.75
2023-05-09T01:59:11.275Z,32.64
2023-05-09T02:01:38.879Z,32.36
2023-05-09T02:04:07.446Z,32.23
2023-05-09T02:06:36.552Z,32.27
2023-05-09T02:09:04.611Z,31.99
2023-05-09T02:11:32.330Z,31.71
2023-05-09T02:14:00.191Z,31.77
2023-05-09T02:16:28.268Z,31.63
2023-05-09T02:18:56.135Z,31.58
2023-05-09T02:21:23.887Z,31.35
2023-05-09T02:23:51.505Z,30.59
2023-05-09T02:26:19.598Z,30.70
2023-05-09T02:28:48.019Z,30.86
2023-05-09T02:31:19.405Z,30.45
2023-05-09T02:33:50.542Z,29.71
2023-05-09T02:36:19.272Z,30.06
2023-05-09T02:38:47.478Z,29.30
2023-05-09T02:41:17.479Z,28.62
2023-05-09T02:43:45.496Z,29.30
2023-05-09T02:46:13.231Z,28.45
2023-05-09T02:48:40.877Z,27.13
2023-05-09T02:51:08.503Z,26.96
2023-05-09T02:53:36.224Z,25.82
2023-05-09T02:56:04.300Z,25.33
2023-05-09T02:58:31.913Z,23.92
2023-05-09T03:00:59.501Z,23.51
2023-05-09T03:03:28.133Z,23.14
2023-05-09T03:05:56.283Z,22.29
2023-05-09T03:08:23.886Z,21.86
2023-05-09T03:10:51.911Z,20.55
2023-05-09T03:13:19.703Z,19.97
2023-05-09T03:15:47.399Z,19.74
2023-05-09T03:18:15.095Z,19.26
2023-05-09T03:20:43.920Z,18.77
2023-05-09T03:23:12.019Z,18.48
2023-05-09T03:25:39.584Z,17.52
2023-05-09T03:28:07.183Z,17.43
2023-05-09T03:30:34.822Z,17.17
2023-05-09T03:33:02.619Z,16.76
2023-05-09T03:35:30.254Z,16.03
2023-05-09T03:37:57.898Z,15.65
2023-05-09T03:40:26.002Z,15.59
2023-05-09T03:43:05.074Z,15.49
2023-05-09T03:45:33.129Z,15.50
2023-05-09T03:48:00.949Z,15.40
2023-05-09T03:50:29.902Z,15.32
2023-05-09T03:52:59.329Z,15.39
2023-05-09T03:55:27.943Z,15.11
2023-05-09T03:57:55.969Z,14.74
2023-05-09T04:00:27.058Z,14.35
2023-05-09T04:03:04.535Z,14.01
2023-05-09T04:05:38.100Z,13.38
2023-05-09T04:08:08.610Z,13.61
2023-05-09T04:10:36.309Z,13.42
2023-05-09T04:13:05.216Z,13.08
2023-05-09T04:15:33.078Z,12.58
2023-05-09T04:18:01.074Z,12.26
2023-05-09T04:20:28.810Z,12.41
2023-05-09T04:22:56.461Z,12.55
2023-05-09T04:25:24.100Z,12.25
2023-05-09T04:27:51.911Z,11.94
2023-05-09T04:30:19.662Z,12.32
2023-05-09T04:32:49.262Z,12.08
2023-05-09T04:35:19.876Z,11.93
2023-05-09T04:37:49.610Z,11.98
2023-05-09T04:40:18.132Z,11.55
2023-05-09T04:42:55.366Z,11.37
2023-05-09T04:45:26.605Z,11.44
2023-05-09T04:47:54.877Z,11.34
2023-05-09T04:50:22.667Z,11.41
2023-05-09T04:52:50.283Z,11.58
2023-05-09T04:55:18.538Z,11.25
2023-05-09T04:57:49.194Z,11.23
2023-05-09T05:00:18.004Z,11.26
2023-05-09T05:02:47.412Z,10.95
2023-05-09T05:05:15.421Z,11.04
2023-05-09T05:07:44.581Z,11.10
2023-05-09T05:10:16.999Z,11.42
2023-05-09T05:12:49.076Z,11.16
2023-05-09T05:15:17.991Z,10.85
2023-05-09T05:17:47.104Z,10.98
2023-05-09T05:20:17.671Z,11.03
2023-05-09T05:22:47.579Z,10.93
2023-05-09T05:25:15.574Z,10.71
2023-05-09T05:27:45.208Z,10.51
2023-05-09T05:30:15.961Z,10.32
2023-05-09T05:32:44.382Z,10.14
2023-05-09T05:35:13.784Z,10.15
2023-05-09T05:37:42.581Z,10.11
2023-05-09T05:40:10.906Z,10.01
2023-05-09T05:42:41.759Z,9.92
2023-05-09T05:45:11.785Z,10.10
2023-05-09T05:47:42.879Z,10.11
2023-05-09T05:50:12.317Z,9.84
2023-05-09T05:52:44.567Z,10.03
2023-05-09T05:55:15.523Z,9.80
2023-05-09T05:57:43.291Z,9.56
2023-05-09T06:00:15.261Z,9.65
2023-05-09T06:02:50.272Z,9.61
2023-05-09T06:05:26.885Z,9.56
2023-05-09T06:07:54.456Z,9.27
2023-05-09T06:10:22.061Z,9.51
2023-05-09T06:12:49.940Z,9.65
2023-05-09T06:15:18.234Z,9.66
2023-05-09T06:17:49.246Z,9.62
2023-05-09T06:20:16.917Z,8.91
2023-05-09T06:22:44.500Z,9.41
2023-05-09T06:25:12.267Z,9.22
2023-05-09T06:27:40.373Z,9.34
2023-05-09T06:30:23.720Z,8.91
2023-05-09T06:32:54.039Z,8.79
2023-05-09T06:35:21.905Z,9.12
2023-05-09T06:37:49.943Z,9.12
2023-05-09T06:40:17.770Z,8.82
2023-05-09T06:42:46.048Z,8.90
2023-05-09T06:45:14.065Z,8.60
2023-05-09T06:47:41.788Z,8.57
2023-05-09T06:50:09.801Z,8.58
2023-05-09T06:52:37.585Z,8.29
2023-05-09T06:55:05.766Z,9.06
2023-05-09T06:57:33.863Z,8.50
2023-05-09T07:00:01.874Z,8.49
2023-05-09T07:02:32.796Z,8.44
2023-05-09T07:05:00.612Z,8.36
2023-05-09T07:07:30.790Z,7.93
2023-05-09T07:10:10.478Z,8.16
2023-05-09T07:12:41.159Z,8.38
2023-05-09T07:15:09.607Z,7.98
2023-05-09T07:17:37.330Z,8.16
2023-05-09T07:20:06.035Z,7.86
2023-05-09T07:22:35.587Z,8.37
2023-05-09T07:25:06.059Z,8.61
2023-05-09T07:27:33.737Z,8.82
2023-05-09T07:30:01.276Z,8.74
2023-05-09T07:32:33.972Z,9.03
2023-05-09T07:35:01.626Z,9.10
2023-05-09T07:37:33.408Z,9.56
2023-05-09T07:40:01.024Z,9.53
2023-05-09T07:42:33.411Z,9.80
2023-05-09T07:45:01.374Z,9.82
2023-05-09T07:47:31.560Z,9.63
2023-05-09T07:49:59.344Z,9.82
2023-05-09T07:52:28.285Z,10.06
2023-05-09T07:54:57.063Z,10.09
2023-05-09T07:57:24.671Z,10.31
2023-05-09T07:59:52.266Z,10.39
2023-05-09T08:02:20.005Z,10.44
2023-05-09T08:04:49.285Z,10.78
2023-05-09T08:07:17.126Z,10.62
2023-05-09T08:09:45.160Z,10.60
2023-05-09T08:12:13.005Z,10.76
2023-05-09T08:14:41.059Z,11.01
2023-05-09T08:17:08.686Z,10.64
2023-05-09T08:19:36.245Z,10.68
2023-05-09T08:22:03.911Z,11.41
2023-05-09T08:24:33.107Z,11.48
2023-05-09T08:27:01.028Z,11.71
2023-05-09T08:29:29.312Z,11.83
2023-05-09T08:31:56.907Z,12.10
2023-05-09T08:34:24.750Z,11.87
2023-05-09T08:36:52.288Z,11.59
2023-05-09T08:39:19.757Z,11.93
2023-05-09T08:41:47.322Z,11.93
2023-05-09T08:44:15.063Z,12.16
2023-05-09T08:46:44.836Z,12.26
2023-05-09T08:49:12.891Z,12.41
2023-05-09T08:51:43.654Z,12.30
2023-05-09T08:54:12.692Z,12.38
2023-05-09T08:56:41.310Z,12.86
2023-05-09T08:59:10.237Z,12.89
2023-05-09T09:01:37.853Z,13.40
2023-05-09T09:04:07.525Z,13.50
2023-05-09T09:06:35.855Z,13.65
2023-05-09T09:09:09.218Z,13.50
2023-05-09T09:11:39.241Z,13.61
2023-05-09T09:14:20.619Z,14.00
2023-05-09T09:16:49.815Z,13.97
2023-05-09T09:19:19.359Z,13.87
2023-05-09T09:21:48.566Z,14.14
2023-05-09T09:24:22.509Z,14.17
2023-05-09T09:26:51.467Z,14.52
2023-05-09T09:29:20.910Z,14.67
2023-05-09T09:31:53.721Z,14.62
2023-05-09T09:34:23.106Z,14.31
2023-05-09T09:36:50.936Z,14.75
2023-05-09T09:39:18.567Z,14.42
2023-05-09T09:41:47.137Z,14.48
2023-05-09T09:44:17.092Z,15.27
2023-05-09T09:46:46.721Z,14.93
2023-05-09T09:49:15.815Z,15.34
2023-05-09T09:51:43.779Z,15.07
2023-05-09T09:54:13.281Z,15.82
2023-05-09T09:56:45.945Z,16.26
2023-05-09T09:59:18.963Z,16.33
2023-05-09T10:01:58.027Z,16.28
2023-05-09T10:04:27.568Z,16.63
2023-05-09T10:07:06.658Z,16.83
2023-05-09T10:09:36.104Z,17.03
2023-05-09T10:12:06.571Z,17.08
2023-05-09T10:14:36.264Z,17.36
2023-05-09T10:17:05.986Z,17.33
2023-05-09T10:19:33.875Z,17.08
2023-05-09T10:22:08.584Z,16.85
2023-05-09T10:24:51.620Z,16.67
2023-05-09T10:27:23.508Z,17.12
2023-05-09T10:30:17.445Z,17.28
2023-05-09T10:33:11.579Z,17.53
2023-05-09T10:35:48.110Z,17.51
2023-05-09T10:38:17.195Z,17.48
2023-05-09T10:40:48.261Z,17.51
2023-05-09T10:43:16.368Z,17.66
2023-05-09T10:45:44.947Z,17.44
2023-05-09T10:48:14.131Z,17.71
2023-05-09T10:50:42.895Z,17.77
2023-05-09T10:53:21.912Z,17.22
2023-05-09T10:55:52.188Z,17.55
2023-05-09T10:58:28.228Z,16.86
2023-05-09T11:00:57.744Z,17.52
2023-05-09T11:03:27.525Z,17.88
2023-05-09T11:05:57.523Z,18.38
2023-05-09T11:08:30.038Z,18.08
2023-05-09T11:11:02.752Z,17.99
2023-05-09T11:13:38.754Z,17.88
2023-05-09T11:16:09.842Z,17.86
2023-05-09T11:18:52.246Z,17.74
2023-05-09T11:21:20.903Z,17.94
2023-05-09T11:23:48.871Z,17.82
2023-05-09T11:26:17.165Z,18.08
2023-05-09T11:28:54.639Z,18.24
2023-05-09T11:31:23.227Z,18.55
2023-05-09T11:33:56.673Z,18.18
2023-05-09T11:36:33.985Z,18.65
2023-05-09T11:39:07.371Z,18.49
2023-05-09T11:41:44.044Z,18.42
2023-05-09T11:44:18.955Z,18.04
2023-05-09T11:46:47.970Z,18.26
2023-05-09T11:49:17.450Z,18.35
2023-05-09T11:51:45.168Z,18.71
2023-05-09T11:54:15.269Z,18.90
2023-05-09T11:56:43.602Z,18.48
2023-05-09T11:59:13.484Z,18.29
2023-05-09T12:01:41.354Z,17.65
2023-05-09T12:04:09.343Z,17.76
2023-05-09T12:06:38.024Z,18.09
2023-05-09T12:09:05.744Z,17.93
2023-05-09T12:11:35.209Z,17.72
2023-05-09T12:14:02.933Z,17.65
2023-05-09T12:16:31.013Z,17.44
2023-05-09T12:18:58.623Z,17.45
2023-05-09T12:21:26.422Z,17.04
2023-05-09T12:23:56.479Z,17.52
2023-05-09T12:26:24.027Z,17.67
2023-05-09T12:28:52.464Z,17.59
2023-05-09T12:31:20.834Z,17.70
2023-05-09T12:33:48.743Z,17.28
2023-05-09T12:36:16.587Z,17.28
2023-05-09T12:38:56.283Z,17.55
2023-05-09T12:43:55.758Z,17.50
2023-05-09T12:46:23.703Z,17.37
2023-05-09T12:48:51.978Z,17.46
2023-05-09T12:51:21.928Z,17.50
2023-05-09T12:53:50.125Z,17.14
2023-05-09T12:56:20.635Z,17.14
2023-05-09T12:58:50.868Z,17.05
2023-05-09T13:01:23.422Z,17.21
2023-05-09T13:04:05.287Z,17.74
2023-05-09T13:06:34.715Z,18.58
2023-05-09T13:09:06.332Z,18.37
2023-05-09T13:11:34.544Z,18.49
2023-05-09T13:14:04.382Z,18.96
2023-05-09T13:16:32.204Z,18.76
2023-05-09T13:19:01.916Z,19.05
2023-05-09T13:21:29.468Z,19.05
2023-05-09T13:23:57.079Z,18.44
2023-05-09T13:26:24.777Z,18.77
2023-05-09T13:28:52.321Z,19.01
2023-05-09T13:31:20.159Z,18.82
2023-05-09T13:33:49.345Z,19.21
2023-05-09T13:36:19.461Z,18.40
2023-05-09T13:38:47.421Z,18.88
2023-05-09T13:41:20.515Z,19.20
2023-05-09T13:43:48.234Z,18.93
2023-05-09T13:46:16.012Z,18.71
2023-05-09T13:48:44.817Z,19.19
2023-05-09T13:51:12.429Z,19.36
2023-05-09T13:53:40.054Z,18.88
2023-05-09T13:56:09.954Z,18.94
2023-05-09T13:58:37.661Z,18.73
2023-05-09T14:01:05.427Z,19.11
2023-05-09T14:03:33.133Z,18.95
2023-05-09T14:06:00.781Z,18.29
2023-05-09T14:08:28.352Z,18.69
2023-05-09T14:10:55.998Z,18.72
2023-05-09T14:13:23.621Z,18.87
2023-05-09T14:15:51.251Z,18.77
2023-05-09T14:18:20.937Z,18.87
2023-05-09T14:20:49.056Z,19.43
2023-05-09T14:23:16.901Z,18.94
2023-05-09T14:25:45.094Z,19.27
2023-05-09T14:28:13.196Z,19.47
2023-05-09T14:30:41.464Z,19.23
2023-05-09T14:33:09.180Z,19.22
2023-05-09T14:35:37.880Z,19.46
2023-05-09T14:38:07.697Z,19.78
2023-05-09T14:40:35.273Z,19.52
2023-05-09T14:43:02.932Z,20.07
2023-05-09T14:45:31.818Z,19.72
2023-05-09T14:48:03.760Z,20.01
2023-05-09T14:50:31.764Z,19.92
2023-05-09T14:53:01.129Z,20.10
2023-05-09T14:55:28.785Z,19.82
2023-05-09T14:57:56.774Z,19.94
2023-05-09T15:00:25.940Z,20.03
2023-05-09T15:02:53.865Z,19.80
2023-05-09T15:05:21.697Z,19.93
2023-05-09T15:07:49.305Z,19.87
2023-05-09T15:10:17.070Z,19.47
2023-05-09T15:12:44.896Z,19.33
2023-05-09T15:15:17.760Z,19.23
2023-05-09T15:17:46.286Z,19.21
2023-05-09T15:20:20.664Z,19.14
2023-05-09T15:22:50.098Z,18.75
2023-05-09T15:25:18.162Z,18.63
2023-05-09T15:27:45.925Z,18.97
2023-05-09T15:30:14.276Z,18.55
2023-05-09T15:32:42.242Z,18.41
2023-05-09T15:35:10.663Z,18.85
2023-05-09T15:37:38.685Z,18.65
2023-05-09T15:40:07.898Z,18.87
2023-05-09T15:42:36.229Z,19.19
2023-05-09T15:45:04.237Z,18.98
2023-05-09T15:47:33.571Z,18.99
2023-05-09T15:50:01.408Z,19.95
2023-05-09T15:52:32.286Z,19.75
2023-05-09T15:55:02.683Z,19.79
2023-05-09T15:57:31.973Z,20.12
2023-05-09T15:59:59.592Z,19.96
2023-05-09T16:02:28.726Z,20.10
2023-05-09T16:04:56.465Z,20.34
2023-05-09T16:07:25.227Z,20.55
2023-05-09T16:09:52.851Z,20.60
2023-05-09T16:12:20.348Z,20.59
2023-05-09T16:14:48.041Z,20.49
2023-05-09T16:17:15.588Z,21.07
2023-05-09T16:19:44.483Z,21.17
2023-05-09T16:22:12.119Z,21.51
2023-05-09T16:24:39.725Z,21.58
2023-05-09T16:27:07.708Z,21.11
2023-05-09T16:29:35.360Z,21.23
2023-05-09T16:32:03.460Z,21.26
2023-05-09T16:34:32.043Z,21.17
2023-05-09T16:37:00.140Z,20.80
2023-05-09T16:39:28.307Z,21.10
2023-05-09T16:41:56.972Z,21.36
2023-05-09T16:44:27.950Z,21.23
2023-05-09T16:46:55.692Z,21.15
2023-05-09T16:49:23.401Z,21.13
2023-05-09T16:51:51.013Z,21.11
2023-05-09T16:54:18.538Z,21.25
2023-05-09T16:56:46.524Z,21.97
2023-05-09T16:59:14.149Z,21.75
2023-05-09T17:01:42.827Z,21.93
2023-05-09T17:04:10.404Z,22.22
2023-05-09T17:06:38.057Z,22.12
2023-05-09T17:09:05.551Z,22.17
2023-05-09T17:11:33.725Z,22.67
2023-05-09T17:14:03.673Z,22.42
2023-05-09T17:16:31.303Z,22.77
2023-05-09T17:18:58.960Z,23.34
2023-05-09T17:21:26.992Z,23.11
2023-05-09T17:23:54.610Z,23.17
2023-05-09T17:26:22.580Z,23.16
2023-05-09T17:28:50.373Z,23.76
2023-05-09T17:31:18.196Z,23.71
2023-05-09T17:33:45.791Z,24.17
2023-05-09T17:36:13.439Z,23.95
2023-05-09T17:38:41.090Z,24.49
2023-05-09T17:41:08.574Z,24.24
2023-05-09T17:43:36.246Z,24.37
2023-05-09T17:46:05.098Z,24.16
2023-05-09T17:48:33.027Z,24.36
2023-05-09T17:51:00.997Z,24.27
2023-05-09T17:53:28.585Z,24.71
2023-05-09T17:55:58.191Z,24.61
2023-05-09T17:58:28.022Z,24.42
2023-05-09T18:00:56.302Z,24.75
2023-05-09T18:03:24.231Z,24.62
2023-05-09T18:05:53.186Z,25.13
2023-05-09T18:08:20.839Z,25.33
2023-05-09T18:10:48.955Z,25.18
2023-05-09T18:13:17.419Z,25.26
2023-05-09T18:15:45.590Z,25.22
2023-05-09T18:18:14.909Z,25.43
2023-05-09T18:20:42.985Z,25.84
2023-05-09T18:23:12.096Z,25.95
2023-05-09T18:25:39.701Z,26.05
2023-05-09T18:28:07.394Z,26.11
2023-05-09T18:30:36.483Z,26.06
2023-05-09T18:33:04.327Z,26.13
2023-05-09T18:35:32.555Z,26.48
2023-05-09T18:38:00.126Z,26.25
2023-05-09T18:40:28.252Z,26.32
2023-05-09T18:42:55.926Z,26.43
2023-05-09T18:45:23.620Z,26.68
2023-05-09T18:47:51.438Z,26.51
2023-05-09T18:50:19.236Z,26.54
2023-05-09T18:52:46.796Z,26.45
2023-05-09T18:55:15.147Z,26.48
2023-05-09T18:57:42.722Z,26.52
2023-05-09T19:00:10.642Z,26.70
2023-05-09T19:02:38.592Z,26.87
2023-05-09T19:05:08.252Z,26.95
2023-05-09T19:07:36.282Z,27.09
2023-05-09T19:10:04.912Z,27.18
2023-05-09T19:12:32.687Z,27.08
2023-05-09T19:15:00.318Z,27.14
2023-05-09T19:17:28.187Z,27.13
2023-05-09T19:19:55.937Z,27.29
2023-05-09T19:22:23.505Z,27.52
2023-05-09T19:24:53.675Z,27.61
2023-05-09T19:27:21.278Z,27.51
2023-05-09T19:29:49.926Z,27.68
2023-05-09T19:32:20.713Z,27.65
2023-05-09T19:34:48.398Z,27.46
2023-05-09T19:37:15.849Z,28.16
2023-05-09T19:39:43.474Z,27.88
2023-05-09T19:42:11.008Z,27.92
2023-05-09T19:44:39.274Z,28.18
2023-05-09T19:47:09.113Z,28.17
2023-05-09T19:49:36.816Z,27.98
2023-05-09T19:52:04.474Z,28.17
2023-05-09T19:54:32.259Z,28.34
2023-05-09T19:56:59.934Z,28.34
2023-05-09T19:59:27.626Z,28.32
2023-05-09T20:01:55.320Z,28.80
2023-05-09T20:04:24.249Z,28.45
2023-05-09T20:06:51.893Z,28.93
2023-05-09T20:09:21.224Z,28.69
2023-05-09T20:11:48.986Z,28.62
2023-05-09T20:14:16.954Z,28.60
2023-05-09T20:16:44.663Z,28.50
2023-05-09T20:19:14.487Z,28.83
2023-05-09T20:21:42.171Z,28.50
2023-05-09T20:24:09.794Z,28.41
2023-05-09T20:26:37.312Z,28.56
2023-05-09T20:29:05.210Z,29.01
2023-05-09T20:31:32.953Z,28.67
2023-05-09T20:34:00.696Z,29.23
2023-05-09T20:36:28.913Z,29.29
2023-05-09T20:38:57.780Z,29.22
2023-05-09T20:41:25.790Z,29.58
2023-05-09T20:43:53.506Z,30.10
2023-05-09T20:46:21.126Z,30.25
2023-05-09T20:48:49.029Z,30.46
2023-05-09T20:51:16.606Z,30.24
2023-05-09T20:53:44.181Z,29.38
2023-05-09T20:56:11.847Z,29.81
2023-05-09T20:58:39.489Z,29.89
2023-05-09T21:01:07.270Z,30.08
2023-05-09T21:03:34.997Z,30.00
2023-05-09T21:06:02.572Z,30.38
2023-05-09T21:08:30.141Z,30.13
2023-05-09T21:10:57.700Z,30.39
2023-05-09T21:13:25.473Z,30.20
2023-05-09T21:15:53.198Z,30.23
2023-05-09T21:18:21.341Z,30.21
2023-05-09T21:20:49.034Z,30.50
2023-05-09T21:23:18.821Z,30.46
2023-05-09T21:25:46.458Z,30.24
2023-05-09T21:28:15.817Z,30.27
2023-05-09T21:30:43.489Z,30.26
2023-05-09T21:33:11.345Z,30.20
2023-05-09T21:35:38.999Z,30.52
2023-05-09T21:38:06.597Z,30.71
2023-05-09T21:40:34.192Z,30.93
2023-05-09T21:43:01.727Z,30.90
2023-05-09T21:45:29.345Z,30.81
2023-05-09T21:47:57.040Z,30.47
2023-05-09T21:50:24.699Z,30.67
2023-05-09T21:52:52.723Z,30.70
2023-05-09T21:55:20.312Z,30.85
2023-05-09T21:57:48.111Z,31.34
2023-05-09T22:00:16.993Z,31.25
2023-05-09T22:02:45.401Z,30.96
2023-05-09T22:05:13.291Z,31.37
2023-05-09T22:07:40.868Z,31.33
2023-05-09T22:10:09.280Z,31.42
2023-05-09T22:12:36.781Z,31.56
2023-05-09T22:15:04.828Z,31.98
2023-05-09T22:17:33.605Z,32.03
2023-05-09T22:20:01.910Z,32.26
2023-05-09T22:22:33.565Z,32.40
2023-05-09T22:25:01.313Z,32.40
2023-05-09T22:27:30.064Z,32.64
2023-05-09T22:29:57.706Z,32.50
2023-05-09T22:32:25.290Z,32.13
2023-05-09T22:34:54.352Z,32.14
2023-05-09T22:37:21.901Z,32.47
2023-05-09T22:39:49.506Z,32.22
2023-05-09T22:42:17.199Z,32.68
2023-05-09T22:44:45.226Z,32.69
2023-05-09T22:47:12.760Z,32.88
2023-05-09T22:49:40.385Z,32.72
2023-05-09T22:52:08.077Z,32.40
2023-05-09T22:54:35.742Z,32.79
2023-05-09T22:57:03.396Z,32.64
2023-05-09T22:59:31.058Z,32.99
2023-05-09T23:01:59.797Z,32.47
2023-05-09T23:04:27.639Z,32.69
2023-05-09T23:06:55.277Z,32.39
2023-05-09T23:09:23.032Z,32.71
2023-05-09T23:11:50.660Z,32.67
2023-05-09T23:14:18.335Z,32.57
2023-05-09T23:16:45.872Z,32.94
2023-05-09T23:19:13.441Z,32.50
2023-05-09T23:21:41.074Z,32.60
2023-05-09T23:24:08.866Z,32.85
2023-05-09T23:26:36.449Z,32.82
2023-05-09T23:29:04.243Z,32.98
2023-05-09T23:31:32.018Z,32.89
2023-05-09T23:34:00.193Z,33.52
2023-05-09T23:36:28.436Z,33.72
2023-05-09T23:38:55.981Z,33.38
2023-05-09T23:41:23.566Z,33.58
2023-05-09T23:43:51.198Z,33.38
2023-05-09T23:46:18.757Z,33.97
2023-05-09T23:48:46.375Z,33.29
2023-05-09T23:51:13.979Z,33.51
2023-05-09T23:53:41.604Z,33.85
2023-05-09T23:56:09.510Z,33.77
2023-05-09T23:58:37.261Z,34.11
